createdAt,value
2022-10-05T00:00:57.022Z,101296.06
2022-10-05T00:03:25.556Z,101296.75
2022-10-05T00:05:52.002Z,101290.56
2022-10-05T00:08:19.419Z,101282.66
2022-10-05T00:10:46.576Z,101291.25
2022-10-05T00:13:20.028Z,101291.13
2022-10-05T00:15:47.622Z,101288.41
2022-10-05T00:18:15.921Z,101294.38
2022-10-05T00:20:43.155Z,101289.91
2022-10-05T00:23:22.038Z,101290.69
2022-10-05T00:25:48.560Z,101280.16
2022-10-05T00:28:35.267Z,101268.75
2022-10-05T00:31:01.674Z,101259.97
2022-10-05T00:33:28.429Z,101261.53
2022-10-05T00:35:55.473Z,101260.53
2022-10-05T00:38:21.971Z,101256.97
2022-10-05T00:41:08.294Z,101255.09
2022-10-05T00:43:43.688Z,101251.50
2022-10-05T00:46:24.261Z,101242.78
2022-10-05T00:49:11.095Z,101243.59
2022-10-05T00:51:38.808Z,101235.69
2022-10-05T00:54:33.951Z,101243.41
2022-10-05T00:57:12.482Z,101245.06
2022-10-05T01:00:05.072Z,101248.50
2022-10-05T01:02:58.414Z,101247.63
2022-10-05T01:05:33.280Z,101243.25
2022-10-05T01:08:32.050Z,101249.22
2022-10-05T01:11:06.306Z,101245.75
2022-10-05T01:13:35.075Z,101245.84
2022-10-05T01:16:08.248Z,101250.06
2022-10-05T01:18:48.993Z,101243.91
2022-10-05T01:21:20.232Z,101244.75
2022-10-05T01:24:11.535Z,101245.56
2022-10-05T01:27:01.475Z,101248.88
2022-10-05T01:29:50.138Z,101252.13
2022-10-05T01:32:20.713Z,101252.78
2022-10-05T01:34:58.262Z,101256.91
2022-10-05T01:37:35.102Z,101259.31
2022-10-05T01:40:20.424Z,101253.97
2022-10-05T01:42:56.165Z,101240.19
2022-10-05T01:45:22.531Z,101241.00
2022-10-05T01:47:51.757Z,101248.72
2022-10-05T01:50:56.614Z,101250.44
2022-10-05T01:53:45.946Z,101239.16
2022-10-05T01:56:30.492Z,101242.59
2022-10-05T01:59:18.845Z,101238.28
2022-10-05T02:01:59.224Z,101238.28
2022-10-05T02:05:00.904Z,101239.03
2022-10-05T02:07:28.975Z,101238.97
2022-10-05T02:09:59.588Z,101244.13
2022-10-05T02:12:29.719Z,101244.94
2022-10-05T02:15:00.905Z,101237.88
2022-10-05T02:17:39.753Z,101236.94
2022-10-05T02:20:10.103Z,101239.53
2022-10-05T02:22:42.470Z,101244.72
2022-10-05T02:25:13.587Z,101243.81
2022-10-05T02:27:46.873Z,101242.06
2022-10-05T02:30:16.496Z,101239.47
2022-10-05T02:33:08.109Z,101240.28
2022-10-05T02:35:34.561Z,101235.91
2022-10-05T02:38:27.222Z,101239.28
2022-10-05T02:41:33.582Z,101236.59
2022-10-05T02:44:06.708Z,101228.75
2022-10-05T02:46:43.493Z,101232.09
2022-10-05T02:49:43.981Z,101235.44
2022-10-05T02:52:38.776Z,101229.28
2022-10-05T02:55:15.348Z,101220.50
2022-10-05T02:57:51.888Z,101217.91
2022-10-05T03:00:21.652Z,101220.38
2022-10-05T03:03:06.500Z,101219.50
2022-10-05T03:05:55.983Z,101218.44
2022-10-05T03:08:28.678Z,101213.13
2022-10-05T03:11:10.083Z,101201.78
2022-10-05T03:14:01.901Z,101195.66
2022-10-05T03:16:28.326Z,101188.63
2022-10-05T03:19:11.933Z,101184.16
2022-10-05T03:22:01.930Z,101178.03
2022-10-05T03:24:41.346Z,101174.50
2022-10-05T03:27:29.534Z,101169.25
2022-10-05T03:30:13.932Z,101172.72
2022-10-05T03:32:45.245Z,101172.72
2022-10-05T03:35:31.927Z,101177.09
2022-10-05T03:38:04.402Z,101169.31
2022-10-05T03:40:36.884Z,101169.31
2022-10-05T03:43:34.271Z,101167.66
2022-10-05T03:46:06.607Z,101170.25
2022-10-05T03:48:40.310Z,101175.44
2022-10-05T03:51:23.209Z,101175.50
2022-10-05T03:53:54.724Z,101177.38
2022-10-05T03:56:36.358Z,101183.50
2022-10-05T03:59:32.772Z,101186.16
2022-10-05T04:02:05.361Z,101188.00
2022-10-05T04:04:55.580Z,101179.41
2022-10-05T04:07:27.919Z,101171.69
2022-10-05T04:09:55.936Z,101170.84
2022-10-05T04:12:26.334Z,101176.94
2022-10-05T04:15:44.980Z,101168.19
2022-10-05T04:18:32.632Z,101173.38
2022-10-05T04:21:03.671Z,101168.19
2022-10-05T04:23:53.572Z,101172.50
2022-10-05T04:26:26.990Z,101168.19
2022-10-05T04:29:32.577Z,101169.91
2022-10-05T04:32:27.308Z,101166.41
2022-10-05T04:35:02.114Z,101158.63
2022-10-05T04:37:42.187Z,101156.03
2022-10-05T04:40:33.995Z,101154.28
2022-10-05T04:43:13.410Z,101154.22
2022-10-05T04:45:42.873Z,101162.00
2022-10-05T04:48:17.325Z,101157.56
2022-10-05T04:51:03.532Z,101160.97
2022-10-05T04:53:57.273Z,101158.28
2022-10-05T04:56:53.953Z,101167.78
2022-10-05T04:59:40.092Z,101166.00
2022-10-05T05:02:20.059Z,101165.13
2022-10-05T05:05:12.680Z,101166.84
2022-10-05T05:07:48.147Z,101166.84
2022-10-05T05:10:30.133Z,101167.66
2022-10-05T05:13:13.262Z,101158.16
2022-10-05T05:15:52.214Z,101150.44
2022-10-05T05:18:38.407Z,101139.34
2022-10-05T05:21:30.997Z,101131.63
2022-10-05T05:23:57.387Z,101137.75
2022-10-05T05:26:29.903Z,101143.84
2022-10-05T05:29:05.761Z,101150.84
2022-10-05T05:31:53.947Z,101156.94
2022-10-05T05:34:23.293Z,101143.97
2022-10-05T05:37:02.601Z,101148.31
2022-10-05T05:39:51.016Z,101148.38
2022-10-05T05:42:44.338Z,101148.44
2022-10-05T05:45:23.898Z,101153.91
2022-10-05T05:47:54.756Z,101157.47
2022-10-05T05:50:40.166Z,101145.44
2022-10-05T05:53:14.755Z,101152.41
2022-10-05T05:55:44.358Z,101151.63
2022-10-05T05:58:16.691Z,101155.22
2022-10-05T06:00:47.426Z,101162.22
2022-10-05T06:03:22.969Z,101154.56
2022-10-05T06:05:53.256Z,101157.22
2022-10-05T06:08:27.962Z,101148.63
2022-10-05T06:11:08.770Z,101143.47
2022-10-05T06:13:38.646Z,101139.22
2022-10-05T06:16:10.180Z,101136.78
2022-10-05T06:18:38.510Z,101135.97
2022-10-05T06:21:20.807Z,101137.84
2022-10-05T06:24:10.995Z,101147.47
2022-10-05T06:27:08.890Z,101150.19
2022-10-05T06:30:04.902Z,101149.56
2022-10-05T06:32:47.488Z,101143.66
2022-10-05T06:35:32.153Z,101137.69
2022-10-05T06:38:08.069Z,101154.44
2022-10-05T06:40:59.326Z,101151.19
2022-10-05T06:43:29.457Z,101151.41
2022-10-05T06:46:02.033Z,101155.16
2022-10-05T06:48:41.067Z,101150.91
2022-10-05T06:51:23.357Z,101152.88
2022-10-05T06:54:04.029Z,101153.03
2022-10-05T06:56:49.769Z,101152.34
2022-10-05T06:59:32.694Z,101150.81
2022-10-05T07:02:19.203Z,101145.72
2022-10-05T07:04:54.732Z,101159.72
2022-10-05T07:07:28.831Z,101169.34
2022-10-05T07:10:40.586Z,101171.22
2022-10-05T07:13:09.961Z,101158.38
2022-10-05T07:16:01.868Z,101162.84
2022-10-05T07:18:46.877Z,101168.28
2022-10-05T07:21:26.546Z,101164.09
2022-10-05T07:24:29.127Z,101161.66
2022-10-05T07:27:18.315Z,101172.22
2022-10-05T07:30:04.547Z,101169.88
2022-10-05T07:32:43.149Z,101165.00
2022-10-05T07:35:37.555Z,101160.94
2022-10-05T07:38:10.949Z,101158.47
2022-10-05T07:40:48.674Z,101159.75
2022-10-05T07:44:00.545Z,101159.34
2022-10-05T07:46:36.612Z,101163.28
2022-10-05T07:49:26.662Z,101152.31
2022-10-05T07:51:57.270Z,101156.88
2022-10-05T07:54:56.513Z,101152.72
2022-10-05T07:57:38.668Z,101161.88
2022-10-05T08:00:09.160Z,101137.72
2022-10-05T08:02:44.410Z,101153.84
2022-10-05T08:05:20.386Z,101142.84
2022-10-05T08:07:47.838Z,101136.03
2022-10-05T08:10:14.407Z,101140.47
2022-10-05T08:12:55.171Z,101132.78
2022-10-05T08:15:24.852Z,101139.03
2022-10-05T08:17:51.194Z,101136.69
2022-10-05T08:20:21.099Z,101129.03
2022-10-05T08:22:54.149Z,101128.41
2022-10-05T08:25:37.944Z,101129.56
2022-10-05T08:28:18.444Z,101126.47
2022-10-05T08:31:07.913Z,101120.50
2022-10-05T08:33:51.622Z,101112.91
2022-10-05T08:36:22.956Z,101122.75
2022-10-05T08:38:51.692Z,101117.84
2022-10-05T08:41:46.828Z,101115.50
2022-10-05T08:44:52.482Z,101111.47
2022-10-05T08:47:37.211Z,101107.31
2022-10-05T08:50:30.971Z,101112.81
2022-10-05T08:53:23.589Z,101107.72
2022-10-05T08:55:49.879Z,101113.22
2022-10-05T08:58:49.322Z,101106.28
2022-10-05T09:01:26.200Z,101098.75
2022-10-05T09:04:24.990Z,101114.63
2022-10-05T09:07:13.188Z,101107.03
2022-10-05T09:10:01.499Z,101102.78
2022-10-05T09:12:53.241Z,101101.22
2022-10-05T09:15:31.751Z,101103.09
2022-10-05T09:18:13.366Z,101108.66
2022-10-05T09:21:02.982Z,101107.84
2022-10-05T09:23:42.914Z,101108.88
2022-10-05T09:26:40.594Z,101101.91
2022-10-05T09:29:44.579Z,101098.41
2022-10-05T09:32:32.876Z,101103.81
2022-10-05T09:35:22.736Z,101101.28
2022-10-05T09:38:10.555Z,101095.34
2022-10-05T09:40:44.570Z,101099.81
2022-10-05T09:43:35.698Z,101094.69
2022-10-05T09:46:48.096Z,101094.78
2022-10-05T09:49:21.365Z,101090.44
2022-10-05T09:52:06.505Z,101096.81
2022-10-05T09:55:01.589Z,101089.97
2022-10-05T09:57:53.156Z,101083.84
2022-10-05T10:00:23.874Z,101086.59
2022-10-05T10:02:58.917Z,101090.97
2022-10-05T10:05:34.423Z,101092.69
2022-10-05T10:08:05.994Z,101090.16
2022-10-05T10:11:03.414Z,101096.31
2022-10-05T10:14:04.310Z,101093.75
2022-10-05T10:16:42.685Z,101095.53
2022-10-05T10:19:40.818Z,101094.81
2022-10-05T10:22:17.734Z,101087.06
2022-10-05T10:25:05.556Z,101090.63
2022-10-05T10:27:56.787Z,101089.88
2022-10-05T10:31:00.706Z,101090.00
2022-10-05T10:33:43.038Z,101098.88
2022-10-05T10:36:22.460Z,101085.91
2022-10-05T10:38:58.454Z,101096.50
2022-10-05T10:41:38.520Z,101088.69
2022-10-05T10:44:23.773Z,101089.66
2022-10-05T10:47:09.465Z,101080.16
2022-10-05T10:50:13.294Z,101082.00
2022-10-05T10:53:04.683Z,101084.75
2022-10-05T10:55:41.124Z,101076.97
2022-10-05T10:58:37.965Z,101071.84
2022-10-05T11:01:18.313Z,101075.41
2022-10-05T11:04:22.550Z,101071.09
2022-10-05T11:07:30.517Z,101066.84
2022-10-05T11:10:07.013Z,101068.69
2022-10-05T11:13:24.844Z,101056.47
2022-10-05T11:16:03.435Z,101061.88
2022-10-05T11:19:02.169Z,101049.75
2022-10-05T11:21:49.827Z,101050.72
2022-10-05T11:24:28.495Z,101046.44
2022-10-05T11:27:13.605Z,101044.75
2022-10-05T11:30:17.702Z,101044.00
2022-10-05T11:33:01.184Z,101037.03
2022-10-05T11:35:49.308Z,101033.59
2022-10-05T11:38:49.229Z,101040.66
2022-10-05T11:41:41.771Z,101044.22
2022-10-05T11:44:17.213Z,101041.63
2022-10-05T11:46:49.170Z,101040.00
2022-10-05T11:49:25.597Z,101039.16
2022-10-05T11:52:00.161Z,101029.59
2022-10-05T11:54:58.485Z,101029.66
2022-10-05T11:57:41.097Z,101024.34
2022-10-05T12:00:36.863Z,101031.44
2022-10-05T12:03:11.082Z,101029.72
2022-10-05T12:05:47.570Z,101027.97
2022-10-05T12:08:27.891Z,101024.50
2022-10-05T12:11:07.981Z,101027.09
2022-10-05T12:13:47.865Z,101025.31
2022-10-05T12:16:35.225Z,101012.22
2022-10-05T12:19:16.570Z,101010.44
2022-10-05T12:21:59.826Z,101018.31
2022-10-05T12:24:48.005Z,101005.19
2022-10-05T12:27:19.073Z,100997.34
2022-10-05T12:30:04.204Z,101007.00
2022-10-05T12:32:33.984Z,100998.28
2022-10-05T12:35:03.411Z,100997.41
2022-10-05T12:38:03.610Z,100996.56
2022-10-05T12:40:51.843Z,100989.53
2022-10-05T12:43:39.710Z,100988.66
2022-10-05T12:46:39.621Z,100992.19
2022-10-05T12:49:22.241Z,100983.47
2022-10-05T12:51:57.705Z,100979.97
2022-10-05T12:54:27.025Z,100976.53
2022-10-05T12:56:59.099Z,100971.25
2022-10-05T13:00:00.597Z,100968.66
2022-10-05T13:02:31.874Z,100970.41
2022-10-05T13:05:12.163Z,100964.31
2022-10-05T13:07:53.719Z,100971.31
2022-10-05T13:10:31.432Z,100966.94
2022-10-05T13:13:29.631Z,100963.47
2022-10-05T13:16:17.110Z,100959.09
2022-10-05T13:18:54.268Z,100964.34
2022-10-05T13:21:49.857Z,100955.63
2022-10-05T13:24:26.983Z,100960.88
2022-10-05T13:26:59.388Z,100955.63
2022-10-05T13:29:33.203Z,100949.50
2022-10-05T13:32:04.890Z,100947.75
2022-10-05T13:34:53.108Z,100933.78
2022-10-05T13:37:29.337Z,100936.41
2022-10-05T13:40:04.843Z,100926.78
2022-10-05T13:42:35.137Z,100929.41
2022-10-05T13:45:23.256Z,100917.22
2022-10-05T13:48:13.570Z,100912.84
2022-10-05T13:51:07.534Z,100914.59
2022-10-05T13:53:45.379Z,100905.84
2022-10-05T13:56:20.953Z,100910.25
2022-10-05T13:59:16.065Z,100908.53
2022-10-05T14:01:51.367Z,100915.56
2022-10-05T14:04:22.086Z,100905.03
2022-10-05T14:06:48.917Z,100905.09
2022-10-05T14:09:30.229Z,100912.09
2022-10-05T14:12:14.799Z,100915.59
2022-10-05T14:14:52.355Z,100902.47
2022-10-05T14:17:41.350Z,100900.75
2022-10-05T14:20:23.373Z,100900.72
2022-10-05T14:22:56.603Z,100899.81
2022-10-05T14:25:23.454Z,100892.81
2022-10-05T14:27:59.234Z,100900.72
2022-10-05T14:30:27.677Z,100897.22
2022-10-05T14:33:00.479Z,100891.06
2022-10-05T14:35:50.732Z,100895.47
2022-10-05T14:38:21.427Z,100885.81
2022-10-05T14:41:02.758Z,100882.31
2022-10-05T14:43:29.627Z,100884.94
2022-10-05T14:46:23.216Z,100880.56
2022-10-05T14:49:11.334Z,100877.06
2022-10-05T14:51:38.237Z,100877.97
2022-10-05T14:54:30.992Z,100873.59
2022-10-05T14:57:18.826Z,100882.34
2022-10-05T15:00:16.379Z,100885.81
2022-10-05T15:03:16.125Z,100883.13
2022-10-05T15:05:47.700Z,100870.00
2022-10-05T15:08:52.981Z,100871.78
2022-10-05T15:11:42.558Z,100857.78
2022-10-05T15:14:17.702Z,100861.25
2022-10-05T15:16:44.331Z,100859.47
2022-10-05T15:19:15.968Z,100844.59
2022-10-05T15:22:01.122Z,100846.31
2022-10-05T15:24:34.154Z,100838.44
2022-10-05T15:27:02.414Z,100827.91
2022-10-05T15:29:52.437Z,100833.13
2022-10-05T15:32:32.294Z,100829.63
2022-10-05T15:35:36.772Z,100824.38
2022-10-05T15:38:25.750Z,100823.50
2022-10-05T15:41:18.125Z,100822.63
2022-10-05T15:43:50.204Z,100815.56
2022-10-05T15:46:36.013Z,100827.81
2022-10-05T15:49:11.485Z,100819.06
2022-10-05T15:51:42.256Z,100817.31
2022-10-05T15:54:42.131Z,100821.66
2022-10-05T15:57:35.228Z,100812.03
2022-10-05T16:00:16.534Z,100808.53
2022-10-05T16:03:11.151Z,100805.03
2022-10-05T16:05:56.019Z,100804.97
2022-10-05T16:08:49.781Z,100805.84
2022-10-05T16:11:30.416Z,100804.97
2022-10-05T16:14:32.605Z,100803.22
2022-10-05T16:17:25.644Z,100807.56
2022-10-05T16:19:58.022Z,100811.94
2022-10-05T16:22:27.354Z,100810.16
2022-10-05T16:25:17.247Z,100806.63
2022-10-05T16:27:53.069Z,100810.13
2022-10-05T16:30:22.384Z,100807.44
2022-10-05T16:33:19.837Z,100800.44
2022-10-05T16:35:49.143Z,100800.41
2022-10-05T16:38:24.811Z,100794.25
2022-10-05T16:41:14.517Z,100798.56
2022-10-05T16:44:08.043Z,100796.81
2022-10-05T16:46:53.789Z,100794.16
2022-10-05T16:49:48.102Z,100801.06
2022-10-05T16:52:19.120Z,100803.66
2022-10-05T16:54:52.061Z,100809.75
2022-10-05T16:57:21.925Z,100810.56
2022-10-05T17:00:01.253Z,100808.81
2022-10-05T17:02:50.900Z,100810.53
2022-10-05T17:05:29.283Z,100816.63
2022-10-05T17:08:26.376Z,100819.16
2022-10-05T17:11:17.044Z,100818.25
2022-10-05T17:14:11.076Z,100819.94
2022-10-05T17:16:59.263Z,100828.66
2022-10-05T17:19:37.677Z,100826.88
2022-10-05T17:22:27.043Z,100832.97
2022-10-05T17:25:06.788Z,100832.03
2022-10-05T17:27:35.205Z,100832.00
2022-10-05T17:30:36.134Z,100831.97
2022-10-05T17:33:27.542Z,100825.84
2022-10-05T17:36:03.126Z,100831.00
2022-10-05T17:38:35.450Z,100839.72
2022-10-05T17:41:20.108Z,100830.06
2022-10-05T17:44:13.281Z,100838.78
2022-10-05T17:46:45.602Z,100834.34
2022-10-05T17:49:25.601Z,100831.69
2022-10-05T17:52:10.714Z,100846.53
2022-10-05T17:55:08.773Z,100837.75
2022-10-05T17:57:36.836Z,100844.63
2022-10-05T18:00:40.651Z,100838.50
2022-10-05T18:03:42.027Z,100842.00
2022-10-05T18:06:44.614Z,100843.72
2022-10-05T18:09:13.868Z,100846.34
2022-10-05T18:11:44.823Z,100854.22
2022-10-05T18:14:24.538Z,100856.84
2022-10-05T18:17:01.535Z,100848.13
2022-10-05T18:19:32.306Z,100850.75
2022-10-05T18:22:24.935Z,100855.22
2022-10-05T18:25:06.354Z,100851.72
2022-10-05T18:27:47.562Z,100856.13
2022-10-05T18:30:19.143Z,100861.34
2022-10-05T18:33:02.817Z,100850.00
2022-10-05T18:35:47.371Z,100863.97
2022-10-05T18:38:21.659Z,100861.34
2022-10-05T18:41:09.112Z,100863.97
2022-10-05T18:43:42.495Z,100868.31
2022-10-05T18:46:16.348Z,100866.56
2022-10-05T18:49:16.632Z,100868.22
2022-10-05T18:52:08.058Z,100878.72
2022-10-05T18:54:43.766Z,100887.53
2022-10-05T18:57:38.101Z,100888.31
2022-10-05T19:00:15.690Z,100886.56
2022-10-05T19:02:57.019Z,100888.31
2022-10-05T19:05:48.053Z,100890.94
2022-10-05T19:08:34.167Z,100897.94
2022-10-05T19:11:23.152Z,100897.03
2022-10-05T19:13:52.466Z,100896.16
2022-10-05T19:16:30.840Z,100905.75
2022-10-05T19:19:28.403Z,100904.88
2022-10-05T19:22:09.811Z,100911.84
2022-10-05T19:24:57.379Z,100919.72
2022-10-05T19:27:45.579Z,100914.47
2022-10-05T19:30:25.248Z,100928.44
2022-10-05T19:33:18.243Z,100925.78
2022-10-05T19:35:58.264Z,100936.25
2022-10-05T19:38:46.442Z,100941.44
2022-10-05T19:41:45.269Z,100941.44
2022-10-05T19:44:26.775Z,100949.25
2022-10-05T19:47:06.874Z,100950.06
2022-10-05T19:49:43.042Z,100949.16
2022-10-05T19:52:13.749Z,100949.16
2022-10-05T19:54:41.730Z,100956.09
2022-10-05T19:57:17.000Z,100955.22
2022-10-05T19:59:47.688Z,100962.16
2022-10-05T20:02:16.811Z,100960.41
2022-10-05T20:04:45.331Z,100963.84
2022-10-05T20:07:24.276Z,100972.56
2022-10-05T20:09:50.719Z,100969.91
2022-10-05T20:12:17.199Z,100970.75
2022-10-05T20:15:02.182Z,100974.22
2022-10-05T20:17:48.055Z,100971.53
2022-10-05T20:20:47.115Z,100976.75
2022-10-05T20:23:27.925Z,100989.81
2022-10-05T20:26:13.001Z,100987.13
2022-10-05T20:28:39.597Z,100989.72
2022-10-05T20:31:07.692Z,100998.38
2022-10-05T20:33:34.459Z,101000.94
2022-10-05T20:36:03.441Z,101001.75
2022-10-05T20:38:30.814Z,101006.94
2022-10-05T20:40:57.552Z,101006.84
2022-10-05T20:43:24.033Z,101017.28
2022-10-05T20:45:52.209Z,101011.13
2022-10-05T20:48:19.467Z,101025.06
2022-10-05T20:50:47.282Z,101018.03
2022-10-05T20:53:13.804Z,101020.66
2022-10-05T20:55:40.504Z,101012.78
2022-10-05T20:58:08.895Z,101024.13
2022-10-05T21:01:10.719Z,101019.78
2022-10-05T21:03:37.402Z,101030.31
2022-10-05T21:06:03.963Z,101022.53
2022-10-05T21:08:30.824Z,101021.69
2022-10-05T21:10:58.010Z,101026.16
2022-10-05T21:13:25.431Z,101026.25
2022-10-05T21:15:51.899Z,101030.66
2022-10-05T21:18:20.103Z,101027.28
2022-10-05T21:20:50.483Z,101030.84
2022-10-05T21:23:16.863Z,101037.00
2022-10-05T21:25:43.282Z,101047.56
2022-10-05T21:28:09.889Z,101044.97
2022-10-05T21:30:36.314Z,101037.16
2022-10-05T21:33:02.715Z,101028.44
2022-10-05T21:35:29.136Z,101027.59
2022-10-05T21:37:55.530Z,101021.50
2022-10-05T21:40:23.885Z,101039.84
2022-10-05T21:42:50.265Z,101041.63
2022-10-05T21:45:16.735Z,101045.09
2022-10-05T21:47:43.147Z,101041.59
2022-10-05T21:50:10.230Z,101051.19
2022-10-05T21:52:36.747Z,101050.28
2022-10-05T21:55:05.029Z,101054.66
2022-10-05T21:57:31.940Z,101051.13
2022-10-05T21:59:58.362Z,101058.13
2022-10-05T22:02:24.803Z,101064.25
2022-10-05T22:04:51.229Z,101071.19
2022-10-05T22:07:19.079Z,101066.81
2022-10-05T22:09:49.411Z,101072.03
2022-10-05T22:12:16.020Z,101069.38
2022-10-05T22:14:42.565Z,101072.03
2022-10-05T22:17:21.570Z,101086.91
2022-10-05T22:19:48.071Z,101071.19
2022-10-05T22:22:14.480Z,101068.59
2022-10-05T22:24:41.005Z,101083.47
2022-10-05T22:27:07.568Z,101080.84
2022-10-05T22:29:34.269Z,101088.72
2022-10-05T22:32:00.705Z,101084.38
2022-10-05T22:34:27.162Z,101088.72
2022-10-05T22:36:53.612Z,101086.97
2022-10-05T22:39:20.060Z,101091.31
2022-10-05T22:41:46.665Z,101099.19
2022-10-05T22:44:13.055Z,101094.78
2022-10-05T22:46:39.724Z,101093.88
2022-10-05T22:49:06.174Z,101108.72
2022-10-05T22:51:32.566Z,101106.09
2022-10-05T22:53:59.005Z,101102.59
2022-10-05T22:56:25.398Z,101102.59
2022-10-05T22:58:51.879Z,101111.31
2022-10-05T23:01:19.059Z,101112.19
2022-10-05T23:03:45.908Z,101108.69
2022-10-05T23:06:18.874Z,101099.97
2022-10-05T23:08:46.003Z,101112.19
2022-10-05T23:11:14.678Z,101117.41
2022-10-05T23:13:41.534Z,101118.28
2022-10-05T23:16:08.722Z,101122.66
2022-10-05T23:18:35.358Z,101114.78
2022-10-05T23:21:02.133Z,101112.19
2022-10-05T23:23:28.555Z,101117.41
2022-10-05T23:26:02.071Z,101124.38
2022-10-05T23:28:29.288Z,101125.28
2022-10-05T23:31:04.941Z,101122.66
2022-10-05T23:33:31.478Z,101126.13
2022-10-05T23:36:27.995Z,101126.06
2022-10-05T23:38:54.407Z,101130.34
2022-10-05T23:41:20.883Z,101134.72
2022-10-05T23:43:47.361Z,101134.66
2022-10-05T23:46:14.293Z,101137.25
2022-10-05T23:48:40.936Z,101130.22
2022-10-05T23:51:09.745Z,101125.81
2022-10-05T23:53:36.392Z,101123.16
2022-10-05T23:56:02.826Z,101118.81
2022-10-05T23:58:29.963Z,101125.81
